sensor_id;sensor_type;location;lat;lon;timestamp;temperature;humidity
75210;DHT22;63796;53.136;14.882;2023-03-14T00:01:43;12.10;99.90
75210;DHT22;63796;53.136;14.882;2023-03-14T00:04:11;12.00;99.90
75210;DHT22;63796;53.136;14.882;2023-03-14T00:06:39;12.10;99.90
75210;DHT22;63796;53.136;14.882;2023-03-14T00:09:06;12.00;99.90
75210;DHT22;63796;53.136;14.882;2023-03-14T00:11:34;12.00;99.90
75210;DHT22;63796;53.136;14.882;2023-03-14T00:14:01;12.00;99.90
75210;DHT22;63796;53.136;14.882;2023-03-14T00:16:29;12.00;99.90
75210;DHT22;63796;53.136;14.882;2023-03-14T00:18:58;11.90;99.90
75210;DHT22;63796;53.136;14.882;2023-03-14T00:21:26;11.90;99.90
75210;DHT22;63796;53.136;14.882;2023-03-14T00:23:53;11.80;99.90
75210;DHT22;63796;53.136;14.882;2023-03-14T00:26:21;11.70;99.90
75210;DHT22;63796;53.136;14.882;2023-03-14T00:28:52;11.50;99.90
75210;DHT22;63796;53.136;14.882;2023-03-14T00:31:20;11.50;99.90
75210;DHT22;63796;53.136;14.882;2023-03-14T00:33:48;11.50;99.90
75210;DHT22;63796;53.136;14.882;2023-03-14T00:36:15;11.50;99.90
75210;DHT22;63796;53.136;14.882;2023-03-14T00:38:44;11.50;99.90
75210;DHT22;63796;53.136;14.882;2023-03-14T00:41:14;11.50;99.90
75210;DHT22;63796;53.136;14.882;2023-03-14T00:43:43;11.50;99.90
75210;DHT22;63796;53.136;14.882;2023-03-14T00:46:11;11.50;99.90
75210;DHT22;63796;53.136;14.882;2023-03-14T00:48:39;11.40;99.90
75210;DHT22;63796;53.136;14.882;2023-03-14T00:51:08;11.40;99.90
75210;DHT22;63796;53.136;14.882;2023-03-14T00:53:36;11.30;99.90
75210;DHT22;63796;53.136;14.882;2023-03-14T00:56:05;11.30;99.90
75210;DHT22;63796;53.136;14.882;2023-03-14T00:58:35;11.30;99.90
75210;DHT22;63796;53.136;14.882;2023-03-14T01:01:09;11.20;99.90
75210;DHT22;63796;53.136;14.882;2023-03-14T01:03:40;11.20;99.90
75210;DHT22;63796;53.136;14.882;2023-03-14T01:08:37;11.00;99.90
75210;DHT22;63796;53.136;14.882;2023-03-14T01:11:06;11.00;99.90
75210;DHT22;63796;53.136;14.882;2023-03-14T01:13:39;11.00;99.90
75210;DHT22;63796;53.136;14.882;2023-03-14T01:16:08;11.00;99.90
75210;DHT22;63796;53.136;14.882;2023-03-14T01:18:36;10.90;99.90
75210;DHT22;63796;53.136;14.882;2023-03-14T01:21:09;10.90;99.90
75210;DHT22;63796;53.136;14.882;2023-03-14T01:23:39;10.90;99.90
75210;DHT22;63796;53.136;14.882;2023-03-14T01:26:08;11.00;99.90
75210;DHT22;63796;53.136;14.882;2023-03-14T01:28:37;11.00;99.90
75210;DHT22;63796;53.136;14.882;2023-03-14T01:31:05;10.90;99.90
75210;DHT22;63796;53.136;14.882;2023-03-14T01:33:34;10.90;99.90
75210;DHT22;63796;53.136;14.882;2023-03-14T01:36:03;10.90;99.90
75210;DHT22;63796;53.136;14.882;2023-03-14T01:38:31;10.90;99.90
75210;DHT22;63796;53.136;14.882;2023-03-14T01:40:59;10.90;99.90
75210;DHT22;63796;53.136;14.882;2023-03-14T01:43:28;10.90;99.90
75210;DHT22;63796;53.136;14.882;2023-03-14T01:51:06;10.90;99.90
75210;DHT22;63796;53.136;14.882;2023-03-14T01:53:37;10.90;99.90
75210;DHT22;63796;53.136;14.882;2023-03-14T01:56:09;10.90;99.90
75210;DHT22;63796;53.136;14.882;2023-03-14T01:58:40;11.00;99.90
75210;DHT22;63796;53.136;14.882;2023-03-14T02:01:10;11.10;99.90
75210;DHT22;63796;53.136;14.882;2023-03-14T02:03:40;11.10;99.90
75210;DHT22;63796;53.136;14.882;2023-03-14T02:06:15;11.20;99.90
75210;DHT22;63796;53.136;14.882;2023-03-14T02:08:46;11.30;99.90
75210;DHT22;63796;53.136;14.882;2023-03-14T02:13:53;11.40;99.90
75210;DHT22;63796;53.136;14.882;2023-03-14T02:16:22;11.40;99.90
75210;DHT22;63796;53.136;14.882;2023-03-14T02:18:49;11.40;99.90
75210;DHT22;63796;53.136;14.882;2023-03-14T02:27:13;11.40;99.90
75210;DHT22;63796;53.136;14.882;2023-03-14T02:29:55;11.30;99.90
75210;DHT22;63796;53.136;14.882;2023-03-14T02:32:26;11.30;99.90
75210;DHT22;63796;53.136;14.882;2023-03-14T02:34:56;11.40;99.90
75210;DHT22;63796;53.136;14.882;2023-03-14T02:37:37;11.40;99.90
75210;DHT22;63796;53.136;14.882;2023-03-14T02:40:08;11.40;99.90
75210;DHT22;63796;53.136;14.882;2023-03-14T02:42:36;11.40;99.90
75210;DHT22;63796;53.136;14.882;2023-03-14T02:47:34;11.40;99.90
75210;DHT22;63796;53.136;14.882;2023-03-14T02:50:10;11.40;99.90
75210;DHT22;63796;53.136;14.882;2023-03-14T02:52:41;11.40;99.90
75210;DHT22;63796;53.136;14.882;2023-03-14T02:55:08;11.40;99.90
75210;DHT22;63796;53.136;14.882;2023-03-14T02:57:36;11.50;99.90
75210;DHT22;63796;53.136;14.882;2023-03-14T03:00:04;11.50;99.90
75210;DHT22;63796;53.136;14.882;2023-03-14T03:02:32;11.50;99.90
75210;DHT22;63796;53.136;14.882;2023-03-14T03:04:59;11.50;99.90
75210;DHT22;63796;53.136;14.882;2023-03-14T03:07:27;11.40;99.90
75210;DHT22;63796;53.136;14.882;2023-03-14T03:09:54;11.50;99.90
75210;DHT22;63796;53.136;14.882;2023-03-14T03:12:22;11.50;99.90
75210;DHT22;63796;53.136;14.882;2023-03-14T03:14:49;11.40;99.90
75210;DHT22;63796;53.136;14.882;2023-03-14T03:17:17;11.40;99.90
75210;DHT22;63796;53.136;14.882;2023-03-14T03:19:44;11.40;99.90
75210;DHT22;63796;53.136;14.882;2023-03-14T03:22:11;11.40;99.90
75210;DHT22;63796;53.136;14.882;2023-03-14T03:24:38;11.50;99.90
75210;DHT22;63796;53.136;14.882;2023-03-14T03:27:06;11.50;99.90
75210;DHT22;63796;53.136;14.882;2023-03-14T03:29:33;11.50;99.90
75210;DHT22;63796;53.136;14.882;2023-03-14T03:32:01;11.50;99.90
75210;DHT22;63796;53.136;14.882;2023-03-14T03:34:28;11.50;99.90
75210;DHT22;63796;53.136;14.882;2023-03-14T03:36:56;11.50;99.90
75210;DHT22;63796;53.136;14.882;2023-03-14T03:39:24;11.50;99.90
75210;DHT22;63796;53.136;14.882;2023-03-14T03:41:51;11.50;99.90
75210;DHT22;63796;53.136;14.882;2023-03-14T03:44:19;11.50;99.90
75210;DHT22;63796;53.136;14.882;2023-03-14T03:46:46;11.50;99.90
75210;DHT22;63796;53.136;14.882;2023-03-14T03:49:13;11.50;99.90
75210;DHT22;63796;53.136;14.882;2023-03-14T03:51:41;11.40;99.90
75210;DHT22;63796;53.136;14.882;2023-03-14T03:54:08;11.30;99.90
75210;DHT22;63796;53.136;14.882;2023-03-14T03:56:35;11.20;99.90
75210;DHT22;63796;53.136;14.882;2023-03-14T03:59:03;11.20;99.90
75210;DHT22;63796;53.136;14.882;2023-03-14T04:01:30;11.20;99.90
75210;DHT22;63796;53.136;14.882;2023-03-14T04:03:58;11.20;99.90
75210;DHT22;63796;53.136;14.882;2023-03-14T04:06:25;11.10;99.90
75210;DHT22;63796;53.136;14.882;2023-03-14T04:08:53;11.10;99.90
75210;DHT22;63796;53.136;14.882;2023-03-14T04:11:21;11.10;99.90
75210;DHT22;63796;53.136;14.882;2023-03-14T04:13:48;11.10;99.90
75210;DHT22;63796;53.136;14.882;2023-03-14T04:16:19;11.00;99.90
75210;DHT22;63796;53.136;14.882;2023-03-14T04:18:49;11.00;99.90
75210;DHT22;63796;53.136;14.882;2023-03-14T04:21:17;11.00;99.90
75210;DHT22;63796;53.136;14.882;2023-03-14T04:23:44;11.00;99.90
75210;DHT22;63796;53.136;14.882;2023-03-14T04:26:11;11.00;99.90
75210;DHT22;63796;53.136;14.882;2023-03-14T04:28:39;11.10;99.90
75210;DHT22;63796;53.136;14.882;2023-03-14T04:31:13;11.00;99.90
75210;DHT22;63796;53.136;14.882;2023-03-14T04:33:43;11.10;99.90
75210;DHT22;63796;53.136;14.882;2023-03-14T04:36:12;11.10;99.90
75210;DHT22;63796;53.136;14.882;2023-03-14T04:38:40;11.10;99.90
75210;DHT22;63796;53.136;14.882;2023-03-14T04:41:07;11.10;99.90
75210;DHT22;63796;53.136;14.882;2023-03-14T04:43:35;11.20;99.90
75210;DHT22;63796;53.136;14.882;2023-03-14T04:46:02;11.20;99.90
75210;DHT22;63796;53.136;14.882;2023-03-14T04:48:30;11.20;99.90
75210;DHT22;63796;53.136;14.882;2023-03-14T04:50:57;11.30;99.90
75210;DHT22;63796;53.136;14.882;2023-03-14T04:53:24;11.30;99.90
75210;DHT22;63796;53.136;14.882;2023-03-14T04:55:52;11.30;99.90
75210;DHT22;63796;53.136;14.882;2023-03-14T04:58:21;11.30;99.90
75210;DHT22;63796;53.136;14.882;2023-03-14T05:00:49;11.30;99.90
75210;DHT22;63796;53.136;14.882;2023-03-14T05:03:17;11.20;99.90
75210;DHT22;63796;53.136;14.882;2023-03-14T05:05:45;11.20;99.90
75210;DHT22;63796;53.136;14.882;2023-03-14T05:08:13;11.20;99.90
75210;DHT22;63796;53.136;14.882;2023-03-14T05:10:40;11.20;99.90
75210;DHT22;63796;53.136;14.882;2023-03-14T05:13:07;11.20;99.90
75210;DHT22;63796;53.136;14.882;2023-03-14T05:15:35;11.10;99.90
75210;DHT22;63796;53.136;14.882;2023-03-14T05:18:02;11.10;99.90
75210;DHT22;63796;53.136;14.882;2023-03-14T05:20:30;11.10;99.90
75210;DHT22;63796;53.136;14.882;2023-03-14T05:22:57;11.10;99.90
75210;DHT22;63796;53.136;14.882;2023-03-14T05:25:24;11.10;99.90
75210;DHT22;63796;53.136;14.882;2023-03-14T05:27:54;11.10;99.90
75210;DHT22;63796;53.136;14.882;2023-03-14T05:30:22;11.20;99.90
75210;DHT22;63796;53.136;14.882;2023-03-14T05:32:49;11.10;99.90
75210;DHT22;63796;53.136;14.882;2023-03-14T05:35:17;11.10;99.90
75210;DHT22;63796;53.136;14.882;2023-03-14T05:37:44;11.10;99.90
75210;DHT22;63796;53.136;14.882;2023-03-14T05:40:11;11.10;99.90
75210;DHT22;63796;53.136;14.882;2023-03-14T05:42:39;11.10;99.90
75210;DHT22;63796;53.136;14.882;2023-03-14T05:45:06;11.10;99.90
75210;DHT22;63796;53.136;14.882;2023-03-14T05:47:34;11.10;99.90
75210;DHT22;63796;53.136;14.882;2023-03-14T05:50:01;11.10;99.90
75210;DHT22;63796;53.136;14.882;2023-03-14T05:52:28;11.10;99.90
75210;DHT22;63796;53.136;14.882;2023-03-14T05:54:55;11.10;99.90
75210;DHT22;63796;53.136;14.882;2023-03-14T05:57:23;11.10;99.90
75210;DHT22;63796;53.136;14.882;2023-03-14T05:59:50;11.10;99.90
75210;DHT22;63796;53.136;14.882;2023-03-14T06:02:17;11.10;99.90
75210;DHT22;63796;53.136;14.882;2023-03-14T06:04:44;11.20;99.90
75210;DHT22;63796;53.136;14.882;2023-03-14T06:07:11;11.20;99.90
75210;DHT22;63796;53.136;14.882;2023-03-14T06:09:39;11.20;99.90
75210;DHT22;63796;53.136;14.882;2023-03-14T06:12:06;11.20;99.90
75210;DHT22;63796;53.136;14.882;2023-03-14T06:14:34;11.20;99.90
75210;DHT22;63796;53.136;14.882;2023-03-14T06:17:01;11.20;99.90
75210;DHT22;63796;53.136;14.882;2023-03-14T06:19:28;11.30;99.90
75210;DHT22;63796;53.136;14.882;2023-03-14T06:21:56;11.30;99.90
75210;DHT22;63796;53.136;14.882;2023-03-14T06:24:23;11.30;99.90
75210;DHT22;63796;53.136;14.882;2023-03-14T06:26:51;11.30;99.90
75210;DHT22;63796;53.136;14.882;2023-03-14T06:29:18;11.30;99.90
75210;DHT22;63796;53.136;14.882;2023-03-14T06:31:45;11.40;99.90
75210;DHT22;63796;53.136;14.882;2023-03-14T06:34:12;11.40;99.90
75210;DHT22;63796;53.136;14.882;2023-03-14T06:36:40;11.50;99.90
75210;DHT22;63796;53.136;14.882;2023-03-14T06:39:07;11.50;99.90
75210;DHT22;63796;53.136;14.882;2023-03-14T06:41:34;11.50;99.90
75210;DHT22;63796;53.136;14.882;2023-03-14T06:44:02;11.60;99.90
75210;DHT22;63796;53.136;14.882;2023-03-14T06:46:29;11.70;99.90
75210;DHT22;63796;53.136;14.882;2023-03-14T06:48:56;11.70;99.90
75210;DHT22;63796;53.136;14.882;2023-03-14T06:51:24;11.70;99.90
75210;DHT22;63796;53.136;14.882;2023-03-14T06:53:51;11.80;99.90
75210;DHT22;63796;53.136;14.882;2023-03-14T06:56:19;11.80;99.90
75210;DHT22;63796;53.136;14.882;2023-03-14T06:58:46;11.90;99.90
75210;DHT22;63796;53.136;14.882;2023-03-14T07:01:28;12.00;99.90
75210;DHT22;63796;53.136;14.882;2023-03-14T07:03:57;11.90;99.90
75210;DHT22;63796;53.136;14.882;2023-03-14T07:06:24;11.80;99.90
75210;DHT22;63796;53.136;14.882;2023-03-14T07:08:52;11.80;99.90
75210;DHT22;63796;53.136;14.882;2023-03-14T07:11:19;11.80;99.90
75210;DHT22;63796;53.136;14.882;2023-03-14T07:13:46;11.90;99.90
75210;DHT22;63796;53.136;14.882;2023-03-14T07:16:14;11.90;99.90
75210;DHT22;63796;53.136;14.882;2023-03-14T07:18:41;11.90;99.90
75210;DHT22;63796;53.136;14.882;2023-03-14T07:21:09;11.80;99.90
75210;DHT22;63796;53.136;14.882;2023-03-14T07:23:36;11.80;99.90
75210;DHT22;63796;53.136;14.882;2023-03-14T07:26:04;11.90;99.90
75210;DHT22;63796;53.136;14.882;2023-03-14T07:28:32;12.00;99.90
75210;DHT22;63796;53.136;14.882;2023-03-14T07:30:59;12.00;99.90
75210;DHT22;63796;53.136;14.882;2023-03-14T07:33:26;12.00;99.90
75210;DHT22;63796;53.136;14.882;2023-03-14T07:35:53;12.00;99.90
75210;DHT22;63796;53.136;14.882;2023-03-14T07:38:21;12.00;99.90
75210;DHT22;63796;53.136;14.882;2023-03-14T07:40:49;12.00;99.90
75210;DHT22;63796;53.136;14.882;2023-03-14T07:43:16;12.00;99.90
75210;DHT22;63796;53.136;14.882;2023-03-14T07:45:46;12.10;99.90
75210;DHT22;63796;53.136;14.882;2023-03-14T07:48:16;12.20;99.90
75210;DHT22;63796;53.136;14.882;2023-03-14T07:50:47;12.30;99.90
75210;DHT22;63796;53.136;14.882;2023-03-14T07:53:16;12.20;99.90
75210;DHT22;63796;53.136;14.882;2023-03-14T07:55:43;12.20;99.90
75210;DHT22;63796;53.136;14.882;2023-03-14T07:58:11;12.20;99.90
75210;DHT22;63796;53.136;14.882;2023-03-14T08:00:39;12.30;99.90
75210;DHT22;63796;53.136;14.882;2023-03-14T08:03:06;12.30;99.90
75210;DHT22;63796;53.136;14.882;2023-03-14T08:05:35;12.30;99.90
75210;DHT22;63796;53.136;14.882;2023-03-14T08:08:03;12.40;99.90
75210;DHT22;63796;53.136;14.882;2023-03-14T08:10:31;12.40;99.90
75210;DHT22;63796;53.136;14.882;2023-03-14T08:12:58;12.40;99.90
75210;DHT22;63796;53.136;14.882;2023-03-14T08:15:28;12.40;99.90
75210;DHT22;63796;53.136;14.882;2023-03-14T08:17:57;12.50;99.90
75210;DHT22;63796;53.136;14.882;2023-03-14T08:20:27;12.50;99.90
75210;DHT22;63796;53.136;14.882;2023-03-14T08:22:56;12.60;99.90
75210;DHT22;63796;53.136;14.882;2023-03-14T08:25:25;12.60;99.90
75210;DHT22;63796;53.136;14.882;2023-03-14T08:27:53;12.70;99.90
75210;DHT22;63796;53.136;14.882;2023-03-14T08:30:21;12.70;99.90
75210;DHT22;63796;53.136;14.882;2023-03-14T08:32:49;12.90;99.90
75210;DHT22;63796;53.136;14.882;2023-03-14T08:35:16;13.10;99.90
75210;DHT22;63796;53.136;14.882;2023-03-14T08:37:44;13.10;99.90
75210;DHT22;63796;53.136;14.882;2023-03-14T08:40:11;13.20;99.90
75210;DHT22;63796;53.136;14.882;2023-03-14T08:42:39;13.30;99.90
75210;DHT22;63796;53.136;14.882;2023-03-14T08:45:07;13.50;99.90
75210;DHT22;63796;53.136;14.882;2023-03-14T08:47:36;13.50;99.90
75210;DHT22;63796;53.136;14.882;2023-03-14T08:50:04;13.50;99.90
75210;DHT22;63796;53.136;14.882;2023-03-14T08:52:32;13.90;99.90
75210;DHT22;63796;53.136;14.882;2023-03-14T08:55:00;13.90;99.90
75210;DHT22;63796;53.136;14.882;2023-03-14T08:57:27;14.10;99.90
75210;DHT22;63796;53.136;14.882;2023-03-14T08:59:55;14.30;99.90
75210;DHT22;63796;53.136;14.882;2023-03-14T09:02:24;14.50;99.90
75210;DHT22;63796;53.136;14.882;2023-03-14T09:04:52;14.60;99.90
75210;DHT22;63796;53.136;14.882;2023-03-14T09:07:20;14.90;99.90
75210;DHT22;63796;53.136;14.882;2023-03-14T09:09:47;14.70;99.90
75210;DHT22;63796;53.136;14.882;2023-03-14T09:12:15;15.30;99.90
75210;DHT22;63796;53.136;14.882;2023-03-14T09:14:42;15.30;99.90
75210;DHT22;63796;53.136;14.882;2023-03-14T09:17:09;15.50;99.90
75210;DHT22;63796;53.136;14.882;2023-03-14T09:19:36;15.80;99.90
75210;DHT22;63796;53.136;14.882;2023-03-14T09:22:04;15.70;99.90
75210;DHT22;63796;53.136;14.882;2023-03-14T09:24:31;16.00;99.90
75210;DHT22;63796;53.136;14.882;2023-03-14T09:26:59;15.60;99.90
75210;DHT22;63796;53.136;14.882;2023-03-14T09:29:26;15.80;99.90
75210;DHT22;63796;53.136;14.882;2023-03-14T09:31:53;15.80;99.90
75210;DHT22;63796;53.136;14.882;2023-03-14T09:34:20;16.10;99.90
75210;DHT22;63796;53.136;14.882;2023-03-14T09:36:47;17.50;99.90
75210;DHT22;63796;53.136;14.882;2023-03-14T09:39:15;17.50;99.90
75210;DHT22;63796;53.136;14.882;2023-03-14T09:41:44;18.10;99.90
75210;DHT22;63796;53.136;14.882;2023-03-14T09:44:16;19.00;98.60
75210;DHT22;63796;53.136;14.882;2023-03-14T09:46:52;17.60;99.50
75210;DHT22;63796;53.136;14.882;2023-03-14T09:49:27;16.90;99.90
75210;DHT22;63796;53.136;14.882;2023-03-14T09:51:58;17.10;99.90
75210;DHT22;63796;53.136;14.882;2023-03-14T09:54:37;18.20;98.40
75210;DHT22;63796;53.136;14.882;2023-03-14T09:57:16;19.50;94.70
75210;DHT22;63796;53.136;14.882;2023-03-14T09:59:45;18.40;97.30
75210;DHT22;63796;53.136;14.882;2023-03-14T10:02:21;16.70;99.90
75210;DHT22;63796;53.136;14.882;2023-03-14T10:04:51;16.00;99.90
75210;DHT22;63796;53.136;14.882;2023-03-14T10:07:26;15.50;99.90
75210;DHT22;63796;53.136;14.882;2023-03-14T10:09:56;15.60;99.90
75210;DHT22;63796;53.136;14.882;2023-03-14T10:12:36;16.30;99.90
75210;DHT22;63796;53.136;14.882;2023-03-14T10:15:10;17.50;99.90
75210;DHT22;63796;53.136;14.882;2023-03-14T10:17:43;16.30;99.90
75210;DHT22;63796;53.136;14.882;2023-03-14T10:20:36;15.70;99.90
75210;DHT22;63796;53.136;14.882;2023-03-14T10:25:44;15.30;99.90
75210;DHT22;63796;53.136;14.882;2023-03-14T10:28:29;15.50;99.90
75210;DHT22;63796;53.136;14.882;2023-03-14T10:30:58;15.80;99.90
75210;DHT22;63796;53.136;14.882;2023-03-14T10:33:27;16.40;99.90
75210;DHT22;63796;53.136;14.882;2023-03-14T10:35:57;16.50;99.90
75210;DHT22;63796;53.136;14.882;2023-03-14T10:38:27;16.70;99.90
75210;DHT22;63796;53.136;14.882;2023-03-14T10:40:56;17.10;99.90
75210;DHT22;63796;53.136;14.882;2023-03-14T10:43:26;16.90;99.90
75210;DHT22;63796;53.136;14.882;2023-03-14T10:46:06;16.60;99.90
75210;DHT22;63796;53.136;14.882;2023-03-14T10:48:37;16.60;99.90
75210;DHT22;63796;53.136;14.882;2023-03-14T10:53:42;16.60;99.90
75210;DHT22;63796;53.136;14.882;2023-03-14T10:56:12;16.60;99.90
75210;DHT22;63796;53.136;14.882;2023-03-14T10:58:42;16.50;99.90
75210;DHT22;63796;53.136;14.882;2023-03-14T11:07:03;15.50;99.90
75210;DHT22;63796;53.136;14.882;2023-03-14T11:12:49;15.40;99.90
75210;DHT22;63796;53.136;14.882;2023-03-14T11:15:30;15.30;99.90
75210;DHT22;63796;53.136;14.882;2023-03-14T11:29:12;14.60;99.90
75210;DHT22;63796;53.136;14.882;2023-03-14T11:31:44;14.50;99.90
75210;DHT22;63796;53.136;14.882;2023-03-14T11:37:01;14.40;99.90
75210;DHT22;63796;53.136;14.882;2023-03-14T11:39:44;14.50;99.90
75210;DHT22;63796;53.136;14.882;2023-03-14T11:42:15;14.70;99.90
75210;DHT22;63796;53.136;14.882;2023-03-14T11:44:47;14.60;99.90
75210;DHT22;63796;53.136;14.882;2023-03-14T11:52:41;14.30;99.90
75210;DHT22;63796;53.136;14.882;2023-03-14T11:57:42;14.20;99.90
75210;DHT22;63796;53.136;14.882;2023-03-14T12:14:02;14.20;99.90
75210;DHT22;63796;53.136;14.882;2023-03-14T12:16:37;14.30;99.90
75210;DHT22;63796;53.136;14.882;2023-03-14T12:19:41;14.40;99.90
75210;DHT22;63796;53.136;14.882;2023-03-14T12:22:26;14.40;99.90
75210;DHT22;63796;53.136;14.882;2023-03-14T12:25:00;14.70;99.90
75210;DHT22;63796;53.136;14.882;2023-03-14T12:27:39;15.10;99.90
75210;DHT22;63796;53.136;14.882;2023-03-14T12:30:16;14.90;99.90
75210;DHT22;63796;53.136;14.882;2023-03-14T12:32:43;14.70;99.90
75210;DHT22;63796;53.136;14.882;2023-03-14T12:38:13;14.80;99.90
75210;DHT22;63796;53.136;14.882;2023-03-14T12:40:56;14.90;99.90
75210;DHT22;63796;53.136;14.882;2023-03-14T12:43:40;14.90;99.90
75210;DHT22;63796;53.136;14.882;2023-03-14T12:46:14;14.90;99.90
75210;DHT22;63796;53.136;14.882;2023-03-14T12:48:45;14.90;99.90
75210;DHT22;63796;53.136;14.882;2023-03-14T12:51:19;14.70;99.90
75210;DHT22;63796;53.136;14.882;2023-03-14T12:56:32;14.50;99.90
75210;DHT22;63796;53.136;14.882;2023-03-14T12:59:14;14.60;99.90
75210;DHT22;63796;53.136;14.882;2023-03-14T13:01:53;14.90;99.90
75210;DHT22;63796;53.136;14.882;2023-03-14T13:04:33;14.90;99.90
75210;DHT22;63796;53.136;14.882;2023-03-14T13:07:10;15.60;99.90
75210;DHT22;63796;53.136;14.882;2023-03-14T13:15:19;15.40;99.90
75210;DHT22;63796;53.136;14.882;2023-03-14T13:17:50;15.40;99.90
75210;DHT22;63796;53.136;14.882;2023-03-14T13:20:24;15.80;99.90
75210;DHT22;63796;53.136;14.882;2023-03-14T13:22:55;15.70;99.90
75210;DHT22;63796;53.136;14.882;2023-03-14T13:25:23;15.50;99.90
75210;DHT22;63796;53.136;14.882;2023-03-14T13:27:53;15.40;99.90
75210;DHT22;63796;53.136;14.882;2023-03-14T13:32:54;15.50;99.90
75210;DHT22;63796;53.136;14.882;2023-03-14T13:35:26;14.90;99.90
75210;DHT22;63796;53.136;14.882;2023-03-14T13:37:56;14.70;99.90
75210;DHT22;63796;53.136;14.882;2023-03-14T13:40:37;14.70;99.90
75210;DHT22;63796;53.136;14.882;2023-03-14T13:43:13;14.70;99.90
75210;DHT22;63796;53.136;14.882;2023-03-14T13:45:44;14.60;99.90
75210;DHT22;63796;53.136;14.882;2023-03-14T13:48:15;14.60;99.90
75210;DHT22;63796;53.136;14.882;2023-03-14T13:50:48;14.90;99.90
75210;DHT22;63796;53.136;14.882;2023-03-14T13:53:18;15.10;99.90
75210;DHT22;63796;53.136;14.882;2023-03-14T13:55:46;15.00;99.90
75210;DHT22;63796;53.136;14.882;2023-03-14T13:58:24;15.00;99.90
75210;DHT22;63796;53.136;14.882;2023-03-14T14:03:26;14.30;99.90
75210;DHT22;63796;53.136;14.882;2023-03-14T14:05:55;14.20;99.90
75210;DHT22;63796;53.136;14.882;2023-03-14T14:08:24;14.20;99.90
75210;DHT22;63796;53.136;14.882;2023-03-14T14:10:55;14.20;99.90
75210;DHT22;63796;53.136;14.882;2023-03-14T14:13:30;14.00;99.90
75210;DHT22;63796;53.136;14.882;2023-03-14T14:16:00;14.00;99.90
75210;DHT22;63796;53.136;14.882;2023-03-14T14:18:30;13.90;99.90
75210;DHT22;63796;53.136;14.882;2023-03-14T14:20:59;14.20;99.90
75210;DHT22;63796;53.136;14.882;2023-03-14T14:23:27;14.40;99.90
75210;DHT22;63796;53.136;14.882;2023-03-14T14:25:56;14.60;99.90
75210;DHT22;63796;53.136;14.882;2023-03-14T14:36:26;13.80;99.90
75210;DHT22;63796;53.136;14.882;2023-03-14T14:41:30;13.80;99.90
75210;DHT22;63796;53.136;14.882;2023-03-14T14:43:59;13.90;99.90
75210;DHT22;63796;53.136;14.882;2023-03-14T14:46:28;14.20;99.90
75210;DHT22;63796;53.136;14.882;2023-03-14T14:48:58;14.30;99.90
75210;DHT22;63796;53.136;14.882;2023-03-14T14:51:34;14.30;99.90
75210;DHT22;63796;53.136;14.882;2023-03-14T14:54:12;14.30;99.90
75210;DHT22;63796;53.136;14.882;2023-03-14T14:56:45;14.40;99.90
75210;DHT22;63796;53.136;14.882;2023-03-14T14:59:27;14.40;99.90
75210;DHT22;63796;53.136;14.882;2023-03-14T15:01:59;14.20;99.90
75210;DHT22;63796;53.136;14.882;2023-03-14T15:04:31;14.10;99.90
75210;DHT22;63796;53.136;14.882;2023-03-14T15:06:58;14.20;99.90
75210;DHT22;63796;53.136;14.882;2023-03-14T15:09:26;14.20;99.90
75210;DHT22;63796;53.136;14.882;2023-03-14T15:11:53;14.40;99.90
75210;DHT22;63796;53.136;14.882;2023-03-14T15:14:20;14.60;99.90
75210;DHT22;63796;53.136;14.882;2023-03-14T15:16:47;14.70;99.90
75210;DHT22;63796;53.136;14.882;2023-03-14T15:19:22;14.50;99.90
75210;DHT22;63796;53.136;14.882;2023-03-14T15:21:52;14.30;99.90
75210;DHT22;63796;53.136;14.882;2023-03-14T15:24:21;14.20;99.90
75210;DHT22;63796;53.136;14.882;2023-03-14T15:26:48;14.00;99.90
75210;DHT22;63796;53.136;14.882;2023-03-14T15:29:16;13.80;99.90
75210;DHT22;63796;53.136;14.882;2023-03-14T15:31:43;13.70;99.90
75210;DHT22;63796;53.136;14.882;2023-03-14T15:34:11;13.60;99.90
75210;DHT22;63796;53.136;14.882;2023-03-14T15:36:38;13.50;99.90
75210;DHT22;63796;53.136;14.882;2023-03-14T15:39:06;13.50;99.90
75210;DHT22;63796;53.136;14.882;2023-03-14T15:41:33;13.50;99.90
75210;DHT22;63796;53.136;14.882;2023-03-14T15:44:01;13.50;99.90
75210;DHT22;63796;53.136;14.882;2023-03-14T15:46:28;13.50;99.90
75210;DHT22;63796;53.136;14.882;2023-03-14T15:48:56;13.60;99.90
75210;DHT22;63796;53.136;14.882;2023-03-14T15:51:24;13.60;99.90
75210;DHT22;63796;53.136;14.882;2023-03-14T15:53:51;13.60;99.90
75210;DHT22;63796;53.136;14.882;2023-03-14T15:56:19;13.50;99.90
75210;DHT22;63796;53.136;14.882;2023-03-14T15:58:47;13.50;99.90
75210;DHT22;63796;53.136;14.882;2023-03-14T16:01:14;13.40;99.90
75210;DHT22;63796;53.136;14.882;2023-03-14T16:03:45;13.30;99.90
75210;DHT22;63796;53.136;14.882;2023-03-14T16:06:13;13.20;99.90
75210;DHT22;63796;53.136;14.882;2023-03-14T16:08:41;13.10;99.90
75210;DHT22;63796;53.136;14.882;2023-03-14T16:11:09;13.10;99.90
75210;DHT22;63796;53.136;14.882;2023-03-14T16:13:38;13.00;99.90
75210;DHT22;63796;53.136;14.882;2023-03-14T16:16:06;11.80;99.90
75210;DHT22;63796;53.136;14.882;2023-03-14T16:18:35;11.10;99.90
75210;DHT22;63796;53.136;14.882;2023-03-14T16:21:05;10.60;99.90
75210;DHT22;63796;53.136;14.882;2023-03-14T16:23:34;10.20;99.90
75210;DHT22;63796;53.136;14.882;2023-03-14T16:26:02;9.90;99.90
75210;DHT22;63796;53.136;14.882;2023-03-14T16:28:31;9.70;99.90
75210;DHT22;63796;53.136;14.882;2023-03-14T16:31:02;9.50;99.90
75210;DHT22;63796;53.136;14.882;2023-03-14T16:33:32;9.40;99.90
75210;DHT22;63796;53.136;14.882;2023-03-14T16:36:01;9.40;99.90
75210;DHT22;63796;53.136;14.882;2023-03-14T16:38:34;9.00;99.90
75210;DHT22;63796;53.136;14.882;2023-03-14T16:41:04;8.90;99.90
75210;DHT22;63796;53.136;14.882;2023-03-14T16:43:33;8.90;99.90
75210;DHT22;63796;53.136;14.882;2023-03-14T16:46:03;8.50;99.90
75210;DHT22;63796;53.136;14.882;2023-03-14T16:48:32;8.30;99.90
75210;DHT22;63796;53.136;14.882;2023-03-14T16:50:59;8.30;99.90
75210;DHT22;63796;53.136;14.882;2023-03-14T16:53:26;8.20;99.90
75210;DHT22;63796;53.136;14.882;2023-03-14T16:55:56;7.60;99.90
75210;DHT22;63796;53.136;14.882;2023-03-14T16:58:25;7.50;99.90
75210;DHT22;63796;53.136;14.882;2023-03-14T17:00:52;7.20;99.90
75210;DHT22;63796;53.136;14.882;2023-03-14T17:03:20;7.10;99.90
75210;DHT22;63796;53.136;14.882;2023-03-14T17:05:48;6.70;99.90
75210;DHT22;63796;53.136;14.882;2023-03-14T17:08:18;7.10;99.90